METAR Data
IDs: Format: Raw Decoded Include TAF

Data at: 0151 UTC 20 Jan 2022

Region: TOP
KATL 200052Z COR 17007KT 10SM FEW032 BKN150 BKN200 13/M01 A3008 RMK AO2 SLP190 T01281011

KBOS 200054Z 22012KT 10SM SCT140 06/M01 A2993 RMK AO2 SLP133 T00561011 $

KBWI 200054Z 23008KT 8SM -RA SCT100 BKN120 OVC160 10/M03 A3000 RMK AO2 RAB53 SLP158 P0000 T01001028

KCLE 200122Z 31012KT 10SM OVC027 M02/M07 A3007 RMK AO2 T10171067

KCLT 200052Z 19007KT 10SM CLR 09/M02 A3011 RMK AO2 SLP196 T00941017

KCVG 200052Z 34012KT 10SM OVC090 02/M04 A3009 RMK AO2 SLP192 T00221044

KDCA 200052Z 20009KT 10SM BKN070 BKN085 OVC150 10/M02 A3002 RMK AO2 RAB13E44 SLP166 P0000 T01001017

KDEN 200135Z 11006KT 7SM OVC004 M08/M09 A3030 RMK AO2 SNE35 P0000 T10781089

KDFW 200053Z 35025G33KT 10SM OVC027 06/M01 A3014 RMK AO2 PK WND 35033/0053 SLP204 T00611006

KDTW 200053Z 32012G20KT 8SM -SN OVC031 M05/M12 A3014 RMK AO2 SLP213 P0000 T10501117 $

KEWR 200051Z 20009KT 10SM SCT140 BKN180 OVC260 07/M03 A2998 RMK AO2 SLP150 T00671028

KFLL 200053Z 14003KT 10SM FEW044 BKN055 22/13 A3015 RMK AO2 SLP208 T02170133 PNO

KIAD 200052Z 20011KT 10SM BKN070 OVC085 09/M03 A3000 RMK AO2 SLP160 T00891028

KIAH 200122Z 34006KT 10SM BKN027 BKN150 OVC250 18/17 A2992 RMK AO2 LTG DSNT W-NE CB DSNT SW-NW-NE MOV E T01780167

KJFK 200051Z 22011KT 10SM FEW150 BKN230 06/M01 A2999 RMK AO2 SLP155 T00611006

KLAS 200056Z 16003KT 10SM CLR 16/M03 A3015 RMK AO2 SLP207 T01561028 $

KLAX 200053Z 29008KT 10SM FEW010 15/11 A3014 RMK AO2 SLP206 T01500106

KLGA 200051Z 20011KT 10SM SCT055 BKN230 09/M04 A2997 RMK AO2 SLP147 T00891039

KMCO 200053Z 12007KT 10SM FEW050 18/11 A3016 RMK AO2 SLP211 T01780111

KMDW 200053Z 34013G20KT 10SM FEW030 FEW250 M08/M16 A3031 RMK AO2 SLP279 T10781161

KMEM 200134Z 35017G23KT 10SM OVC016 02/M01 A3016 RMK AO2 PK WND 01028/0111 PRESRR T00171011 $

KMIA 200053Z 11006KT 10SM SCT060 22/15 A3016 RMK AO2 SLP211 T02170150

KMSP 200053Z 32013KT 10SM CLR M16/M23 A3052 RMK AO2 SLP359 T11611228 $

KORD 200051Z 33009KT 10SM FEW030 FEW250 M09/M16 A3030 RMK AO2 SLP271 T10941161

KPDX 200053Z 12011KT 2SM -DZ OVC009 07/06 A3031 RMK AO2 SFC VIS 3 SLP262 P0002 T00720061

KPHL 200054Z 21007KT 10SM SCT060 BKN200 08/M02 A2999 RMK AO2 SLP156 T00831017

KPHX 200051Z 25006KT 10SM FEW060 19/04 A3004 RMK AO2 SLP163 T01940039

KPIT 200051Z 26004KT 10SM FEW070 OVC110 05/00 A2997 RMK AO2 SLP165 T00500000

KSAN 200051Z 31007KT 9SM FEW013 SCT250 15/12 A3015 RMK AO2 SLP208 T01500122

KSEA 200053Z 00000KT 10SM OVC022 09/06 A3026 RMK AO2 SLP254 T00890056

KSFO 200056Z 30012KT 10SM FEW004 SCT200 12/09 A3022 RMK AO2 SLP232 T01170094

KSLC 200054Z 31006KT 7SM BKN070 BKN100 01/M02 A3031 RMK AO2 SLP282 T00061022

KSTL 200051Z 32014G21KT 10SM OVC150 M07/M13 A3036 RMK AO2 SLP292 T10671133

KTPA 200053Z 00000KT 10SM BKN055 18/11 A3015 RMK AO2 SLP209 T01780111